sensor_id;sensor_type;location;lat;lon;timestamp;pressure;altitude;pressure_sealevel;temperature
77789;BMP280;70537;44.384;0.512;2023-06-10T00:00:12;100840.22;;;18.02
77789;BMP280;70537;44.384;0.512;2023-06-10T00:02:40;100846.47;;;18.02
77789;BMP280;70537;44.384;0.512;2023-06-10T00:05:06;100847.22;;;18.03
77789;BMP280;70537;44.384;0.512;2023-06-10T00:07:33;100840.41;;;18.04
77789;BMP280;70537;44.384;0.512;2023-06-10T00:09:59;100838.75;;;18.01
77789;BMP280;70537;44.384;0.512;2023-06-10T00:12:25;100846.38;;;17.94
77789;BMP280;70537;44.384;0.512;2023-06-10T00:14:50;100838.03;;;18.00
77789;BMP280;70537;44.384;0.512;2023-06-10T00:17:18;100844.34;;;17.95
77789;BMP280;70537;44.384;0.512;2023-06-10T00:19:44;100838.63;;;17.93
77789;BMP280;70537;44.384;0.512;2023-06-10T00:22:12;100834.97;;;17.90
77789;BMP280;70537;44.384;0.512;2023-06-10T00:24:37;100848.69;;;17.90
77789;BMP280;70537;44.384;0.512;2023-06-10T00:27:03;100854.13;;;17.83
77789;BMP280;70537;44.384;0.512;2023-06-10T00:29:29;100855.03;;;17.85
77789;BMP280;70537;44.384;0.512;2023-06-10T00:31:54;100866.44;;;17.89
77789;BMP280;70537;44.384;0.512;2023-06-10T00:34:23;100864.75;;;17.86
77789;BMP280;70537;44.384;0.512;2023-06-10T00:36:48;100870.69;;;17.77
77789;BMP280;70537;44.384;0.512;2023-06-10T00:39:14;100862.31;;;17.69
77789;BMP280;70537;44.384;0.512;2023-06-10T00:41:39;100861.06;;;17.70
77789;BMP280;70537;44.384;0.512;2023-06-10T00:44:05;100858.56;;;17.72
77789;BMP280;70537;44.384;0.512;2023-06-10T00:46:30;100863.06;;;17.70
77789;BMP280;70537;44.384;0.512;2023-06-10T00:48:57;100851.97;;;17.76
77789;BMP280;70537;44.384;0.512;2023-06-10T00:51:23;100854.94;;;17.78
77789;BMP280;70537;44.384;0.512;2023-06-10T00:53:49;100835.44;;;17.68
77789;BMP280;70537;44.384;0.512;2023-06-10T00:56:15;100855.03;;;17.72
77789;BMP280;70537;44.384;0.512;2023-06-10T00:58:40;100850.09;;;17.70
77789;BMP280;70537;44.384;0.512;2023-06-10T01:01:06;100845.13;;;17.69
77789;BMP280;70537;44.384;0.512;2023-06-10T01:03:31;100851.56;;;17.71
77789;BMP280;70537;44.384;0.512;2023-06-10T01:08:58;100851.34;;;17.69
77789;BMP280;70537;44.384;0.512;2023-06-10T01:11:36;100855.47;;;17.63
77789;BMP280;70537;44.384;0.512;2023-06-10T01:14:04;100848.09;;;17.58
77789;BMP280;70537;44.384;0.512;2023-06-10T01:16:30;100846.78;;;17.59
77789;BMP280;70537;44.384;0.512;2023-06-10T01:18:56;100839.09;;;17.57
77789;BMP280;70537;44.384;0.512;2023-06-10T01:21:22;100845.13;;;17.56
77789;BMP280;70537;44.384;0.512;2023-06-10T01:23:55;100838.47;;;17.51
77789;BMP280;70537;44.384;0.512;2023-06-10T01:26:28;100841.44;;;17.53
77789;BMP280;70537;44.384;0.512;2023-06-10T01:29:03;100845.44;;;17.52
77789;BMP280;70537;44.384;0.512;2023-06-10T01:34:13;100836.88;;;17.42
77789;BMP280;70537;44.384;0.512;2023-06-10T01:36:41;100842.47;;;17.37
77789;BMP280;70537;44.384;0.512;2023-06-10T01:39:08;100848.25;;;17.33
77789;BMP280;70537;44.384;0.512;2023-06-10T01:41:34;100847.31;;;17.31
77789;BMP280;70537;44.384;0.512;2023-06-10T01:44:00;100846.38;;;17.28
77789;BMP280;70537;44.384;0.512;2023-06-10T01:46:25;100847.00;;;17.34
77789;BMP280;70537;44.384;0.512;2023-06-10T01:48:51;100853.72;;;17.33
77789;BMP280;70537;44.384;0.512;2023-06-10T01:51:16;100850.78;;;17.31
77789;BMP280;70537;44.384;0.512;2023-06-10T01:53:42;100848.78;;;17.32
77789;BMP280;70537;44.384;0.512;2023-06-10T01:56:07;100850.50;;;17.35
77789;BMP280;70537;44.384;0.512;2023-06-10T01:58:33;100841.31;;;17.32
77789;BMP280;70537;44.384;0.512;2023-06-10T02:00:58;100847.09;;;17.29
77789;BMP280;70537;44.384;0.512;2023-06-10T02:03:24;100846.16;;;17.26
77789;BMP280;70537;44.384;0.512;2023-06-10T02:05:49;100847.63;;;17.27
77789;BMP280;70537;44.384;0.512;2023-06-10T02:08:15;100854.91;;;17.24
77789;BMP280;70537;44.384;0.512;2023-06-10T02:10:40;100853.72;;;17.20
77789;BMP280;70537;44.384;0.512;2023-06-10T02:13:06;100850.78;;;17.18
77789;BMP280;70537;44.384;0.512;2023-06-10T02:15:32;100855.53;;;17.17
77789;BMP280;70537;44.384;0.512;2023-06-10T02:17:57;100853.72;;;17.20
77789;BMP280;70537;44.384;0.512;2023-06-10T02:20:23;100853.53;;;17.18
77789;BMP280;70537;44.384;0.512;2023-06-10T02:22:48;100859.09;;;17.12
77789;BMP280;70537;44.384;0.512;2023-06-10T02:25:14;100852.16;;;17.11
77789;BMP280;70537;44.384;0.512;2023-06-10T02:27:39;100854.34;;;17.13
77789;BMP280;70537;44.384;0.512;2023-06-10T02:30:05;100860.38;;;17.11
77789;BMP280;70537;44.384;0.512;2023-06-10T02:32:31;100854.66;;;17.09
77789;BMP280;70537;44.384;0.512;2023-06-10T02:34:56;100855.81;;;17.00
77789;BMP280;70537;44.384;0.512;2023-06-10T02:37:22;100861.78;;;16.99
77789;BMP280;70537;44.384;0.512;2023-06-10T02:39:48;100852.28;;;17.00
77789;BMP280;70537;44.384;0.512;2023-06-10T02:42:14;100858.94;;;17.05
77789;BMP280;70537;44.384;0.512;2023-06-10T02:44:39;100851.56;;;16.99
77789;BMP280;70537;44.384;0.512;2023-06-10T02:47:05;100845.31;;;16.86
77789;BMP280;70537;44.384;0.512;2023-06-10T02:49:30;100866.91;;;16.89
77789;BMP280;70537;44.384;0.512;2023-06-10T02:51:56;100865.97;;;16.87
77789;BMP280;70537;44.384;0.512;2023-06-10T02:54:25;100859.97;;;16.88
77789;BMP280;70537;44.384;0.512;2023-06-10T02:56:51;100865.00;;;16.84
77789;BMP280;70537;44.384;0.512;2023-06-10T02:59:17;100869.56;;;16.82
77789;BMP280;70537;44.384;0.512;2023-06-10T03:01:43;100866.50;;;16.85
77789;BMP280;70537;44.384;0.512;2023-06-10T03:04:08;100860.69;;;16.89
77789;BMP280;70537;44.384;0.512;2023-06-10T03:06:34;100864.69;;;16.88
77789;BMP280;70537;44.384;0.512;2023-06-10T03:09:01;100882.63;;;16.89
77789;BMP280;70537;44.384;0.512;2023-06-10T03:11:27;100885.25;;;16.81
77789;BMP280;70537;44.384;0.512;2023-06-10T03:13:52;100886.44;;;16.67
77789;BMP280;70537;44.384;0.512;2023-06-10T03:16:21;100894.22;;;16.63
77789;BMP280;70537;44.384;0.512;2023-06-10T03:18:46;100900.41;;;16.50
77789;BMP280;70537;44.384;0.512;2023-06-10T03:21:12;100889.50;;;16.44
77789;BMP280;70537;44.384;0.512;2023-06-10T03:23:37;100898.72;;;16.41
77789;BMP280;70537;44.384;0.512;2023-06-10T03:26:03;100897.78;;;16.39
77789;BMP280;70537;44.384;0.512;2023-06-10T03:28:30;100908.00;;;16.38
77789;BMP280;70537;44.384;0.512;2023-06-10T03:30:56;100902.72;;;16.40
77789;BMP280;70537;44.384;0.512;2023-06-10T03:33:21;100903.47;;;16.41
77789;BMP280;70537;44.384;0.512;2023-06-10T03:35:47;100906.19;;;16.41
77789;BMP280;70537;44.384;0.512;2023-06-10T03:38:12;100902.06;;;16.34
77789;BMP280;70537;44.384;0.512;2023-06-10T03:40:38;100910.06;;;16.32
77789;BMP280;70537;44.384;0.512;2023-06-10T03:43:03;100916.25;;;16.33
77789;BMP280;70537;44.384;0.512;2023-06-10T03:45:29;100912.78;;;16.32
77789;BMP280;70537;44.384;0.512;2023-06-10T03:47:55;100912.28;;;16.34
77789;BMP280;70537;44.384;0.512;2023-06-10T03:50:21;100904.34;;;16.30
77789;BMP280;70537;44.384;0.512;2023-06-10T03:52:48;100918.56;;;16.28
77789;BMP280;70537;44.384;0.512;2023-06-10T03:55:14;100919.59;;;16.25
77789;BMP280;70537;44.384;0.512;2023-06-10T03:57:41;100916.03;;;16.30
77789;BMP280;70537;44.384;0.512;2023-06-10T04:00:07;100918.28;;;16.32
77789;BMP280;70537;44.384;0.512;2023-06-10T04:02:37;100931.66;;;16.36
77789;BMP280;70537;44.384;0.512;2023-06-10T04:05:03;100921.91;;;16.40
77789;BMP280;70537;44.384;0.512;2023-06-10T04:07:29;100927.22;;;16.51
77789;BMP280;70537;44.384;0.512;2023-06-10T04:09:56;100933.28;;;16.50
77789;BMP280;70537;44.384;0.512;2023-06-10T04:12:21;100940.06;;;16.62
77789;BMP280;70537;44.384;0.512;2023-06-10T04:14:47;100935.13;;;16.61
77789;BMP280;70537;44.384;0.512;2023-06-10T04:17:12;100945.47;;;16.68
77789;BMP280;70537;44.384;0.512;2023-06-10T04:19:37;100952.38;;;16.74
77789;BMP280;70537;44.384;0.512;2023-06-10T04:22:03;100947.56;;;16.81
77789;BMP280;70537;44.384;0.512;2023-06-10T04:24:30;100951.19;;;16.89
77789;BMP280;70537;44.384;0.512;2023-06-10T04:26:56;100959.00;;;16.98
77789;BMP280;70537;44.384;0.512;2023-06-10T04:29:21;100955.69;;;17.05
77789;BMP280;70537;44.384;0.512;2023-06-10T04:31:47;100951.06;;;17.13
77789;BMP280;70537;44.384;0.512;2023-06-10T04:34:12;100959.94;;;17.19
77789;BMP280;70537;44.384;0.512;2023-06-10T04:36:38;100951.94;;;17.21
77789;BMP280;70537;44.384;0.512;2023-06-10T04:39:04;100955.88;;;17.26
77789;BMP280;70537;44.384;0.512;2023-06-10T04:41:31;100961.47;;;17.34
77789;BMP280;70537;44.384;0.512;2023-06-10T04:43:56;100958.72;;;17.34
77789;BMP280;70537;44.384;0.512;2023-06-10T04:46:23;100960.13;;;17.40
77789;BMP280;70537;44.384;0.512;2023-06-10T04:48:49;100952.66;;;17.41
77789;BMP280;70537;44.384;0.512;2023-06-10T04:51:15;100964.94;;;17.53
77789;BMP280;70537;44.384;0.512;2023-06-10T04:53:40;100966.63;;;17.56
77789;BMP280;70537;44.384;0.512;2023-06-10T04:56:07;100958.09;;;17.60
77789;BMP280;70537;44.384;0.512;2023-06-10T04:58:33;100959.97;;;17.65
77789;BMP280;70537;44.384;0.512;2023-06-10T05:00:58;100968.66;;;17.69
77789;BMP280;70537;44.384;0.512;2023-06-10T05:03:25;100959.13;;;17.70
77789;BMP280;70537;44.384;0.512;2023-06-10T05:05:50;100963.81;;;17.75
77789;BMP280;70537;44.384;0.512;2023-06-10T05:08:15;100972.28;;;17.77
77789;BMP280;70537;44.384;0.512;2023-06-10T05:10:41;100979.34;;;17.72
77789;BMP280;70537;44.384;0.512;2023-06-10T05:13:06;100977.34;;;17.73
77789;BMP280;70537;44.384;0.512;2023-06-10T05:15:32;100977.22;;;17.79
77789;BMP280;70537;44.384;0.512;2023-06-10T05:17:58;100984.84;;;17.86
77789;BMP280;70537;44.384;0.512;2023-06-10T05:20:24;100983.75;;;17.89
77789;BMP280;70537;44.384;0.512;2023-06-10T05:22:50;100986.00;;;17.90
77789;BMP280;70537;44.384;0.512;2023-06-10T05:25:16;100996.91;;;17.96
77789;BMP280;70537;44.384;0.512;2023-06-10T05:27:41;100996.78;;;18.02
77789;BMP280;70537;44.384;0.512;2023-06-10T05:30:09;100992.25;;;18.04
77789;BMP280;70537;44.384;0.512;2023-06-10T05:32:35;100998.59;;;18.12
77789;BMP280;70537;44.384;0.512;2023-06-10T05:35:00;100997.72;;;18.17
77789;BMP280;70537;44.384;0.512;2023-06-10T05:37:26;100993.38;;;18.22
77789;BMP280;70537;44.384;0.512;2023-06-10T05:39:52;101004.28;;;18.28
77789;BMP280;70537;44.384;0.512;2023-06-10T05:42:17;101009.16;;;18.35
77789;BMP280;70537;44.384;0.512;2023-06-10T05:44:43;101002.25;;;18.41
77789;BMP280;70537;44.384;0.512;2023-06-10T05:47:08;101004.59;;;18.51
77789;BMP280;70537;44.384;0.512;2023-06-10T05:49:34;101000.56;;;18.52
77789;BMP280;70537;44.384;0.512;2023-06-10T05:52:00;100999.53;;;18.55
77789;BMP280;70537;44.384;0.512;2023-06-10T05:54:26;101005.44;;;18.59
77789;BMP280;70537;44.384;0.512;2023-06-10T05:56:51;100999.22;;;18.45
77789;BMP280;70537;44.384;0.512;2023-06-10T05:59:17;101014.63;;;18.61
77789;BMP280;70537;44.384;0.512;2023-06-10T06:01:42;101004.16;;;18.60
77789;BMP280;70537;44.384;0.512;2023-06-10T06:04:08;101003.41;;;18.73
77789;BMP280;70537;44.384;0.512;2023-06-10T06:06:35;101013.56;;;18.78
77789;BMP280;70537;44.384;0.512;2023-06-10T06:09:00;101016.81;;;18.76
77789;BMP280;70537;44.384;0.512;2023-06-10T06:11:26;101008.78;;;18.78
77789;BMP280;70537;44.384;0.512;2023-06-10T06:13:52;101017.09;;;18.86
77789;BMP280;70537;44.384;0.512;2023-06-10T06:16:17;101023.88;;;18.85
77789;BMP280;70537;44.384;0.512;2023-06-10T06:18:43;101013.28;;;18.89
77789;BMP280;70537;44.384;0.512;2023-06-10T06:21:09;101020.47;;;18.92
77789;BMP280;70537;44.384;0.512;2023-06-10T06:23:34;101016.66;;;18.95
77789;BMP280;70537;44.384;0.512;2023-06-10T06:26:00;101023.72;;;19.04
77789;BMP280;70537;44.384;0.512;2023-06-10T06:28:26;101024.41;;;19.17
77789;BMP280;70537;44.384;0.512;2023-06-10T06:30:55;101027.22;;;19.25
77789;BMP280;70537;44.384;0.512;2023-06-10T06:33:21;101034.09;;;19.32
77789;BMP280;70537;44.384;0.512;2023-06-10T06:35:46;101016.16;;;19.38
77789;BMP280;70537;44.384;0.512;2023-06-10T06:38:12;101013.81;;;19.42
77789;BMP280;70537;44.384;0.512;2023-06-10T06:40:37;101021.03;;;19.53
77789;BMP280;70537;44.384;0.512;2023-06-10T06:43:03;101026.94;;;19.57
77789;BMP280;70537;44.384;0.512;2023-06-10T06:45:28;101026.31;;;19.64
77789;BMP280;70537;44.384;0.512;2023-06-10T06:47:53;101029.84;;;19.73
77789;BMP280;70537;44.384;0.512;2023-06-10T06:50:21;101025.28;;;19.75
77789;BMP280;70537;44.384;0.512;2023-06-10T06:52:46;101031.41;;;19.89
77789;BMP280;70537;44.384;0.512;2023-06-10T06:55:11;101028.41;;;20.00
77789;BMP280;70537;44.384;0.512;2023-06-10T06:57:37;101033.59;;;20.11
77789;BMP280;70537;44.384;0.512;2023-06-10T07:00:03;101034.72;;;20.16
77789;BMP280;70537;44.384;0.512;2023-06-10T07:02:29;101031.25;;;20.23
77789;BMP280;70537;44.384;0.512;2023-06-10T07:04:57;101037.91;;;20.28
77789;BMP280;70537;44.384;0.512;2023-06-10T07:07:24;101039.56;;;20.31
77789;BMP280;70537;44.384;0.512;2023-06-10T07:09:49;101043.97;;;20.26
77789;BMP280;70537;44.384;0.512;2023-06-10T07:12:15;101042.91;;;20.37
77789;BMP280;70537;44.384;0.512;2023-06-10T07:14:40;101042.56;;;20.48
77789;BMP280;70537;44.384;0.512;2023-06-10T07:17:06;101037.06;;;20.48
77789;BMP280;70537;44.384;0.512;2023-06-10T07:19:31;101039.78;;;20.84
77789;BMP280;70537;44.384;0.512;2023-06-10T07:21:57;101029.84;;;20.81
77789;BMP280;70537;44.384;0.512;2023-06-10T07:24:22;101033.44;;;20.61
77789;BMP280;70537;44.384;0.512;2023-06-10T07:26:48;101038.97;;;20.61
77789;BMP280;70537;44.384;0.512;2023-06-10T07:29:13;101048.59;;;20.83
77789;BMP280;70537;44.384;0.512;2023-06-10T07:31:40;101046.97;;;20.95
77789;BMP280;70537;44.384;0.512;2023-06-10T07:34:06;101046.81;;;21.08
77789;BMP280;70537;44.384;0.512;2023-06-10T07:36:31;101042.06;;;21.24
77789;BMP280;70537;44.384;0.512;2023-06-10T07:38:57;101047.22;;;21.35
77789;BMP280;70537;44.384;0.512;2023-06-10T07:41:23;101041.69;;;21.20
77789;BMP280;70537;44.384;0.512;2023-06-10T07:43:51;101054.75;;;21.12
77789;BMP280;70537;44.384;0.512;2023-06-10T07:46:20;101059.50;;;21.11
77789;BMP280;70537;44.384;0.512;2023-06-10T07:48:46;101071.88;;;21.18
77789;BMP280;70537;44.384;0.512;2023-06-10T07:51:12;101064.88;;;21.25
77789;BMP280;70537;44.384;0.512;2023-06-10T07:53:37;101064.13;;;21.24
77789;BMP280;70537;44.384;0.512;2023-06-10T07:57:42;101070.41;;;21.70
77789;BMP280;70537;44.384;0.512;2023-06-10T08:00:08;101077.94;;;21.70
77789;BMP280;70537;44.384;0.512;2023-06-10T08:02:33;101080.91;;;21.87
77789;BMP280;70537;44.384;0.512;2023-06-10T08:04:59;101088.28;;;21.92
77789;BMP280;70537;44.384;0.512;2023-06-10T08:07:24;101084.91;;;22.02
77789;BMP280;70537;44.384;0.512;2023-06-10T08:09:50;101084.91;;;22.09
77789;BMP280;70537;44.384;0.512;2023-06-10T08:12:16;101088.47;;;22.50
77789;BMP280;70537;44.384;0.512;2023-06-10T08:14:41;101084.38;;;22.59
77789;BMP280;70537;44.384;0.512;2023-06-10T08:17:07;101085.13;;;22.59
77789;BMP280;70537;44.384;0.512;2023-06-10T08:19:32;101085.81;;;23.00
77789;BMP280;70537;44.384;0.512;2023-06-10T08:21:58;101090.81;;;22.61
77789;BMP280;70537;44.384;0.512;2023-06-10T08:24:23;101087.13;;;22.59
77789;BMP280;70537;44.384;0.512;2023-06-10T08:26:49;101087.97;;;22.36
77789;BMP280;70537;44.384;0.512;2023-06-10T08:29:14;101091.03;;;22.48
77789;BMP280;70537;44.384;0.512;2023-06-10T08:31:46;101098.66;;;22.80
77789;BMP280;70537;44.384;0.512;2023-06-10T08:34:12;101090.78;;;22.69
77789;BMP280;70537;44.384;0.512;2023-06-10T08:36:37;101110.53;;;22.98
77789;BMP280;70537;44.384;0.512;2023-06-10T08:39:03;101110.00;;;23.24
77789;BMP280;70537;44.384;0.512;2023-06-10T08:41:30;101096.78;;;23.40
77789;BMP280;70537;44.384;0.512;2023-06-10T08:44:36;101111.94;;;23.64
77789;BMP280;70537;44.384;0.512;2023-06-10T08:47:16;101102.16;;;23.38
77789;BMP280;70537;44.384;0.512;2023-06-10T08:49:46;101098.28;;;23.16
77789;BMP280;70537;44.384;0.512;2023-06-10T08:52:17;101103.13;;;23.33
77789;BMP280;70537;44.384;0.512;2023-06-10T08:55:10;101107.91;;;23.58
77789;BMP280;70537;44.384;0.512;2023-06-10T08:57:31;101107.56;;;23.96
77789;BMP280;70537;44.384;0.512;2023-06-10T08:59:57;101109.97;;;24.26
77789;BMP280;70537;44.384;0.512;2023-06-10T09:02:27;101101.84;;;23.94
77789;BMP280;70537;44.384;0.512;2023-06-10T09:04:53;101112.81;;;23.84
77789;BMP280;70537;44.384;0.512;2023-06-10T09:07:19;101111.22;;;23.98
77789;BMP280;70537;44.384;0.512;2023-06-10T09:09:45;101106.22;;;24.76
77789;BMP280;70537;44.384;0.512;2023-06-10T09:12:12;101095.63;;;24.65
77789;BMP280;70537;44.384;0.512;2023-06-10T09:14:38;101111.44;;;24.72
77789;BMP280;70537;44.384;0.512;2023-06-10T09:17:04;101112.06;;;24.53
77789;BMP280;70537;44.384;0.512;2023-06-10T09:19:30;101112.94;;;24.11
77789;BMP280;70537;44.384;0.512;2023-06-10T09:21:56;101110.44;;;23.63
77789;BMP280;70537;44.384;0.512;2023-06-10T09:24:25;101114.97;;;23.76
77789;BMP280;70537;44.384;0.512;2023-06-10T09:27:02;101119.19;;;24.29
77789;BMP280;70537;44.384;0.512;2023-06-10T09:29:28;101114.53;;;24.76
77789;BMP280;70537;44.384;0.512;2023-06-10T09:31:53;101111.94;;;25.15
77789;BMP280;70537;44.384;0.512;2023-06-10T09:34:24;101106.19;;;25.13
77789;BMP280;70537;44.384;0.512;2023-06-10T09:36:50;101110.84;;;25.47
77789;BMP280;70537;44.384;0.512;2023-06-10T09:39:17;101111.19;;;25.80
77789;BMP280;70537;44.384;0.512;2023-06-10T09:41:43;101106.06;;;25.96
77789;BMP280;70537;44.384;0.512;2023-06-10T09:44:20;101104.00;;;26.06
77789;BMP280;70537;44.384;0.512;2023-06-10T09:46:49;101104.97;;;25.43
77789;BMP280;70537;44.384;0.512;2023-06-10T09:49:16;101104.97;;;25.43
77789;BMP280;70537;44.384;0.512;2023-06-10T09:51:52;101105.59;;;24.95
77789;BMP280;70537;44.384;0.512;2023-06-10T09:54:18;101108.16;;;24.39
77789;BMP280;70537;44.384;0.512;2023-06-10T09:56:47;101106.41;;;24.16
77789;BMP280;70537;44.384;0.512;2023-06-10T09:59:12;101101.16;;;24.92
77789;BMP280;70537;44.384;0.512;2023-06-10T10:01:38;101100.72;;;25.22
77789;BMP280;70537;44.384;0.512;2023-06-10T10:04:03;101098.09;;;25.44
77789;BMP280;70537;44.384;0.512;2023-06-10T10:06:30;101099.13;;;25.48
77789;BMP280;70537;44.384;0.512;2023-06-10T10:08:55;101096.53;;;25.99
77789;BMP280;70537;44.384;0.512;2023-06-10T10:11:22;101106.44;;;26.41
77789;BMP280;70537;44.384;0.512;2023-06-10T10:13:51;101093.00;;;26.08
77789;BMP280;70537;44.384;0.512;2023-06-10T10:16:20;101100.06;;;25.90
77789;BMP280;70537;44.384;0.512;2023-06-10T10:18:52;101104.13;;;26.08
77789;BMP280;70537;44.384;0.512;2023-06-10T10:21:22;101095.94;;;26.10
77789;BMP280;70537;44.384;0.512;2023-06-10T10:23:55;101105.16;;;26.73
77789;BMP280;70537;44.384;0.512;2023-06-10T10:26:25;101102.78;;;27.10
77789;BMP280;70537;44.384;0.512;2023-06-10T10:31:23;101091.38;;;27.49
77789;BMP280;70537;44.384;0.512;2023-06-10T10:33:58;101098.31;;;27.81
77789;BMP280;70537;44.384;0.512;2023-06-10T10:36:25;101099.84;;;27.93
77789;BMP280;70537;44.384;0.512;2023-06-10T10:38:51;101093.81;;;27.76
77789;BMP280;70537;44.384;0.512;2023-06-10T10:41:19;101092.25;;;27.51
77789;BMP280;70537;44.384;0.512;2023-06-10T10:43:46;101089.38;;;27.82
77789;BMP280;70537;44.384;0.512;2023-06-10T10:46:13;101088.91;;;27.97
77789;BMP280;70537;44.384;0.512;2023-06-10T10:48:40;101080.59;;;28.09
77789;BMP280;70537;44.384;0.512;2023-06-10T10:51:07;101082.06;;;28.45
77789;BMP280;70537;44.384;0.512;2023-06-10T10:53:39;101083.81;;;27.94
77789;BMP280;70537;44.384;0.512;2023-06-10T10:56:15;101082.31;;;27.48
77789;BMP280;70537;44.384;0.512;2023-06-10T10:59:03;101081.69;;;28.16
77789;BMP280;70537;44.384;0.512;2023-06-10T11:01:42;101079.06;;;28.41
77789;BMP280;70537;44.384;0.512;2023-06-10T11:04:12;101070.94;;;28.57
77789;BMP280;70537;44.384;0.512;2023-06-10T11:06:48;101065.94;;;28.32
77789;BMP280;70537;44.384;0.512;2023-06-10T11:09:27;101079.28;;;28.22
77789;BMP280;70537;44.384;0.512;2023-06-10T11:12:22;101068.34;;;28.73
77789;BMP280;70537;44.384;0.512;2023-06-10T11:14:55;101071.78;;;28.71
77789;BMP280;70537;44.384;0.512;2023-06-10T11:17:27;101071.75;;;28.95
77789;BMP280;70537;44.384;0.512;2023-06-10T11:19:53;101060.50;;;29.18
77789;BMP280;70537;44.384;0.512;2023-06-10T11:22:20;101067.69;;;29.72
77789;BMP280;70537;44.384;0.512;2023-06-10T11:24:49;101046.34;;;28.79
77789;BMP280;70537;44.384;0.512;2023-06-10T11:27:19;101069.97;;;29.25
77789;BMP280;70537;44.384;0.512;2023-06-10T11:32:34;101055.59;;;30.20
77789;BMP280;70537;44.384;0.512;2023-06-10T11:35:07;101058.34;;;30.07
77789;BMP280;70537;44.384;0.512;2023-06-10T11:37:33;101061.25;;;30.09
77789;BMP280;70537;44.384;0.512;2023-06-10T11:39:59;101059.50;;;30.15
77789;BMP280;70537;44.384;0.512;2023-06-10T11:42:43;101066.88;;;30.09
77789;BMP280;70537;44.384;0.512;2023-06-10T11:45:14;101059.00;;;30.19
77789;BMP280;70537;44.384;0.512;2023-06-10T11:47:56;101053.28;;;30.17
77789;BMP280;70537;44.384;0.512;2023-06-10T11:50:32;101057.19;;;29.98
77789;BMP280;70537;44.384;0.512;2023-06-10T11:53:00;101060.56;;;30.36
77789;BMP280;70537;44.384;0.512;2023-06-10T11:55:46;101047.06;;;30.32
77789;BMP280;70537;44.384;0.512;2023-06-10T11:58:20;101047.38;;;29.46
77789;BMP280;70537;44.384;0.512;2023-06-10T12:03:11;101052.38;;;29.73
77789;BMP280;70537;44.384;0.512;2023-06-10T12:05:37;101031.81;;;30.08
77789;BMP280;70537;44.384;0.512;2023-06-10T12:08:11;101037.13;;;30.57
77789;BMP280;70537;44.384;0.512;2023-06-10T12:10:43;101031.06;;;30.62
77789;BMP280;70537;44.384;0.512;2023-06-10T12:13:09;101037.00;;;30.41
77789;BMP280;70537;44.384;0.512;2023-06-10T12:15:35;101038.31;;;29.99
77789;BMP280;70537;44.384;0.512;2023-06-10T12:18:01;101033.34;;;29.97
77789;BMP280;70537;44.384;0.512;2023-06-10T12:20:31;101031.56;;;30.72
77789;BMP280;70537;44.384;0.512;2023-06-10T12:23:01;101019.38;;;30.11
77789;BMP280;70537;44.384;0.512;2023-06-10T12:25:33;101025.22;;;28.99
77789;BMP280;70537;44.384;0.512;2023-06-10T12:27:59;101018.59;;;29.44
77789;BMP280;70537;44.384;0.512;2023-06-10T12:30:26;101018.22;;;29.12
77789;BMP280;70537;44.384;0.512;2023-06-10T12:32:51;101010.69;;;28.66
77789;BMP280;70537;44.384;0.512;2023-06-10T12:35:25;101020.53;;;28.20
77789;BMP280;70537;44.384;0.512;2023-06-10T12:37:59;101015.94;;;28.48
77789;BMP280;70537;44.384;0.512;2023-06-10T12:40:37;101019.38;;;29.58
77789;BMP280;70537;44.384;0.512;2023-06-10T12:43:06;101013.03;;;30.24
77789;BMP280;70537;44.384;0.512;2023-06-10T12:45:36;101010.56;;;30.30
77789;BMP280;70537;44.384;0.512;2023-06-10T12:48:10;101000.38;;;29.96
77789;BMP280;70537;44.384;0.512;2023-06-10T12:50:42;101003.50;;;30.43
77789;BMP280;70537;44.384;0.512;2023-06-10T12:53:09;100998.75;;;31.18
77789;BMP280;70537;44.384;0.512;2023-06-10T12:55:36;100995.81;;;31.77
77789;BMP280;70537;44.384;0.512;2023-06-10T12:58:02;100989.44;;;31.29
77789;BMP280;70537;44.384;0.512;2023-06-10T13:00:28;100999.78;;;31.41
77789;BMP280;70537;44.384;0.512;2023-06-10T13:02:56;100998.16;;;31.99
77789;BMP280;70537;44.384;0.512;2023-06-10T13:05:22;100999.41;;;32.45
77789;BMP280;70537;44.384;0.512;2023-06-10T13:07:48;100991.41;;;32.73
77789;BMP280;70537;44.384;0.512;2023-06-10T13:10:17;100994.31;;;32.75
77789;BMP280;70537;44.384;0.512;2023-06-10T13:12:43;100986.69;;;32.78
77789;BMP280;70537;44.384;0.512;2023-06-10T13:15:09;100985.69;;;32.35
77789;BMP280;70537;44.384;0.512;2023-06-10T13:17:35;100979.78;;;31.32
77789;BMP280;70537;44.384;0.512;2023-06-10T13:20:04;100977.88;;;30.48
77789;BMP280;70537;44.384;0.512;2023-06-10T13:22:31;100982.53;;;29.89
77789;BMP280;70537;44.384;0.512;2023-06-10T13:24:58;100981.31;;;29.27
77789;BMP280;70537;44.384;0.512;2023-06-10T13:27:24;100971.66;;;29.17
77789;BMP280;70537;44.384;0.512;2023-06-10T13:29:49;100966.78;;;29.17
77789;BMP280;70537;44.384;0.512;2023-06-10T13:32:15;100966.03;;;28.42
77789;BMP280;70537;44.384;0.512;2023-06-10T13:34:40;100965.94;;;28.17
77789;BMP280;70537;44.384;0.512;2023-06-10T13:37:06;100980.84;;;27.98
77789;BMP280;70537;44.384;0.512;2023-06-10T13:39:31;100972.69;;;27.79
77789;BMP280;70537;44.384;0.512;2023-06-10T13:41:57;100976.53;;;27.62
77789;BMP280;70537;44.384;0.512;2023-06-10T13:44:22;100974.47;;;27.62
77789;BMP280;70537;44.384;0.512;2023-06-10T13:46:48;100976.41;;;28.77
77789;BMP280;70537;44.384;0.512;2023-06-10T13:49:13;100975.69;;;29.78
77789;BMP280;70537;44.384;0.512;2023-06-10T13:51:39;100963.03;;;30.60
77789;BMP280;70537;44.384;0.512;2023-06-10T13:54:04;100963.75;;;31.19
77789;BMP280;70537;44.384;0.512;2023-06-10T13:56:30;100964.50;;;31.51
77789;BMP280;70537;44.384;0.512;2023-06-10T13:58:55;100959.50;;;31.81
77789;BMP280;70537;44.384;0.512;2023-06-10T14:01:21;100957.25;;;32.45
77789;BMP280;70537;44.384;0.512;2023-06-10T14:03:46;100961.75;;;32.34
77789;BMP280;70537;44.384;0.512;2023-06-10T14:06:12;100953.28;;;33.05
77789;BMP280;70537;44.384;0.512;2023-06-10T14:08:44;100952.16;;;32.75
77789;BMP280;70537;44.384;0.512;2023-06-10T14:11:10;100944.22;;;32.18